sensor_id;sensor_type;location;lat;lon;timestamp;P1;durP1;ratioP1;P2;durP2;ratioP2
56752;SDS011;42627;42.646;23.642;2023-04-25T00:00:21;2.40;;;0.80;;
56752;SDS011;42627;42.646;23.642;2023-04-25T00:02:22;2.10;;;0.80;;
56752;SDS011;42627;42.646;23.642;2023-04-25T00:04:23;3.42;;;1.08;;
56752;SDS011;42627;42.646;23.642;2023-04-25T00:06:25;3.22;;;1.10;;
56752;SDS011;42627;42.646;23.642;2023-04-25T00:08:26;3.30;;;1.42;;
56752;SDS011;42627;42.646;23.642;2023-04-25T00:10:27;4.05;;;1.50;;
56752;SDS011;42627;42.646;23.642;2023-04-25T00:12:28;2.75;;;1.30;;
56752;SDS011;42627;42.646;23.642;2023-04-25T00:14:29;3.38;;;2.00;;
56752;SDS011;42627;42.646;23.642;2023-04-25T00:16:33;3.20;;;1.55;;
56752;SDS011;42627;42.646;23.642;2023-04-25T00:18:35;3.30;;;1.48;;
56752;SDS011;42627;42.646;23.642;2023-04-25T00:20:36;3.10;;;1.60;;
56752;SDS011;42627;42.646;23.642;2023-04-25T00:22:37;4.65;;;2.03;;
56752;SDS011;42627;42.646;23.642;2023-04-25T00:24:38;4.68;;;1.63;;
56752;SDS011;42627;42.646;23.642;2023-04-25T00:26:39;5.70;;;2.22;;
56752;SDS011;42627;42.646;23.642;2023-04-25T00:28:41;3.35;;;2.00;;
56752;SDS011;42627;42.646;23.642;2023-04-25T00:30:43;4.53;;;2.05;;
56752;SDS011;42627;42.646;23.642;2023-04-25T00:32:44;5.68;;;1.90;;
56752;SDS011;42627;42.646;23.642;2023-04-25T00:34:45;3.60;;;1.83;;
56752;SDS011;42627;42.646;23.642;2023-04-25T00:36:46;3.53;;;1.90;;
56752;SDS011;42627;42.646;23.642;2023-04-25T00:38:47;2.95;;;1.52;;
56752;SDS011;42627;42.646;23.642;2023-04-25T00:40:48;3.60;;;1.85;;
56752;SDS011;42627;42.646;23.642;2023-04-25T00:42:50;5.63;;;2.13;;
56752;SDS011;42627;42.646;23.642;2023-04-25T00:44:52;7.85;;;2.20;;
56752;SDS011;42627;42.646;23.642;2023-04-25T00:46:53;4.07;;;1.85;;
56752;SDS011;42627;42.646;23.642;2023-04-25T00:48:54;3.22;;;1.70;;
56752;SDS011;42627;42.646;23.642;2023-04-25T00:50:56;3.28;;;1.83;;
56752;SDS011;42627;42.646;23.642;2023-04-25T00:52:58;3.90;;;1.65;;
56752;SDS011;42627;42.646;23.642;2023-04-25T00:54:59;2.97;;;1.70;;
56752;SDS011;42627;42.646;23.642;2023-04-25T00:57:00;8.35;;;2.60;;
56752;SDS011;42627;42.646;23.642;2023-04-25T00:59:02;4.38;;;2.22;;
56752;SDS011;42627;42.646;23.642;2023-04-25T01:01:05;3.97;;;2.38;;
56752;SDS011;42627;42.646;23.642;2023-04-25T01:03:06;4.53;;;2.00;;
56752;SDS011;42627;42.646;23.642;2023-04-25T01:05:08;3.80;;;1.60;;
56752;SDS011;42627;42.646;23.642;2023-04-25T01:07:11;4.32;;;2.17;;
56752;SDS011;42627;42.646;23.642;2023-04-25T01:09:13;2.78;;;1.48;;
56752;SDS011;42627;42.646;23.642;2023-04-25T01:11:14;5.10;;;2.05;;
56752;SDS011;42627;42.646;23.642;2023-04-25T01:13:15;5.22;;;2.60;;
56752;SDS011;42627;42.646;23.642;2023-04-25T01:15:16;4.50;;;2.15;;
56752;SDS011;42627;42.646;23.642;2023-04-25T01:17:18;3.20;;;1.77;;
56752;SDS011;42627;42.646;23.642;2023-04-25T01:19:19;3.65;;;1.55;;
56752;SDS011;42627;42.646;23.642;2023-04-25T01:21:20;3.60;;;1.92;;
56752;SDS011;42627;42.646;23.642;2023-04-25T01:23:21;6.90;;;3.05;;
56752;SDS011;42627;42.646;23.642;2023-04-25T01:25:22;3.97;;;2.42;;
56752;SDS011;42627;42.646;23.642;2023-04-25T01:27:23;5.30;;;1.92;;
56752;SDS011;42627;42.646;23.642;2023-04-25T01:29:32;3.90;;;1.80;;
56752;SDS011;42627;42.646;23.642;2023-04-25T01:31:33;4.30;;;2.10;;
56752;SDS011;42627;42.646;23.642;2023-04-25T01:33:35;4.63;;;2.53;;
56752;SDS011;42627;42.646;23.642;2023-04-25T01:35:36;3.70;;;1.90;;
56752;SDS011;42627;42.646;23.642;2023-04-25T01:37:37;5.95;;;1.70;;
56752;SDS011;42627;42.646;23.642;2023-04-25T01:39:38;2.88;;;1.55;;
56752;SDS011;42627;42.646;23.642;2023-04-25T01:41:39;3.20;;;1.77;;
56752;SDS011;42627;42.646;23.642;2023-04-25T01:43:40;3.50;;;1.70;;
56752;SDS011;42627;42.646;23.642;2023-04-25T01:45:42;3.28;;;1.40;;
56752;SDS011;42627;42.646;23.642;2023-04-25T01:47:43;3.45;;;1.58;;
56752;SDS011;42627;42.646;23.642;2023-04-25T01:51:49;4.97;;;1.50;;
56752;SDS011;42627;42.646;23.642;2023-04-25T01:53:50;3.47;;;1.50;;
56752;SDS011;42627;42.646;23.642;2023-04-25T01:56:00;3.58;;;1.67;;
56752;SDS011;42627;42.646;23.642;2023-04-25T01:58:03;4.05;;;1.90;;
56752;SDS011;42627;42.646;23.642;2023-04-25T02:00:13;3.38;;;1.52;;
56752;SDS011;42627;42.646;23.642;2023-04-25T02:02:15;2.97;;;1.73;;
56752;SDS011;42627;42.646;23.642;2023-04-25T02:04:16;3.40;;;1.80;;
56752;SDS011;42627;42.646;23.642;2023-04-25T02:06:17;4.70;;;1.45;;
56752;SDS011;42627;42.646;23.642;2023-04-25T02:08:18;4.05;;;2.03;;
56752;SDS011;42627;42.646;23.642;2023-04-25T02:10:19;5.03;;;1.80;;
56752;SDS011;42627;42.646;23.642;2023-04-25T02:12:20;4.85;;;1.63;;
56752;SDS011;42627;42.646;23.642;2023-04-25T02:14:21;4.45;;;2.08;;
56752;SDS011;42627;42.646;23.642;2023-04-25T02:16:22;5.40;;;1.90;;
56752;SDS011;42627;42.646;23.642;2023-04-25T02:18:23;4.05;;;1.83;;
56752;SDS011;42627;42.646;23.642;2023-04-25T02:20:26;3.90;;;1.88;;
56752;SDS011;42627;42.646;23.642;2023-04-25T02:22:27;4.05;;;1.80;;
56752;SDS011;42627;42.646;23.642;2023-04-25T02:24:30;6.85;;;1.90;;
56752;SDS011;42627;42.646;23.642;2023-04-25T02:26:48;4.13;;;1.98;;
56752;SDS011;42627;42.646;23.642;2023-04-25T02:28:50;4.18;;;1.95;;
56752;SDS011;42627;42.646;23.642;2023-04-25T02:30:52;2.47;;;1.55;;
56752;SDS011;42627;42.646;23.642;2023-04-25T02:32:53;3.08;;;1.67;;
56752;SDS011;42627;42.646;23.642;2023-04-25T02:34:54;3.17;;;1.50;;
56752;SDS011;42627;42.646;23.642;2023-04-25T02:36:55;4.00;;;1.35;;
56752;SDS011;42627;42.646;23.642;2023-04-25T02:38:56;3.50;;;1.60;;
56752;SDS011;42627;42.646;23.642;2023-04-25T02:40:57;3.13;;;1.50;;
56752;SDS011;42627;42.646;23.642;2023-04-25T02:43:04;3.33;;;1.48;;
56752;SDS011;42627;42.646;23.642;2023-04-25T02:45:08;2.45;;;1.27;;
56752;SDS011;42627;42.646;23.642;2023-04-25T02:47:09;2.00;;;1.17;;
56752;SDS011;42627;42.646;23.642;2023-04-25T02:49:10;2.15;;;1.05;;
56752;SDS011;42627;42.646;23.642;2023-04-25T02:51:11;3.33;;;1.65;;
56752;SDS011;42627;42.646;23.642;2023-04-25T02:53:12;3.05;;;1.30;;
56752;SDS011;42627;42.646;23.642;2023-04-25T02:55:13;1.58;;;1.13;;
56752;SDS011;42627;42.646;23.642;2023-04-25T02:57:17;2.63;;;1.33;;
56752;SDS011;42627;42.646;23.642;2023-04-25T02:59:18;1.88;;;1.08;;
56752;SDS011;42627;42.646;23.642;2023-04-25T03:01:19;3.63;;;1.63;;
56752;SDS011;42627;42.646;23.642;2023-04-25T03:03:20;4.15;;;1.48;;
56752;SDS011;42627;42.646;23.642;2023-04-25T03:05:21;4.03;;;1.60;;
56752;SDS011;42627;42.646;23.642;2023-04-25T03:07:22;3.17;;;1.67;;
56752;SDS011;42627;42.646;23.642;2023-04-25T03:09:23;3.35;;;1.70;;
56752;SDS011;42627;42.646;23.642;2023-04-25T03:11:25;3.90;;;1.88;;
56752;SDS011;42627;42.646;23.642;2023-04-25T03:13:26;4.55;;;1.70;;
56752;SDS011;42627;42.646;23.642;2023-04-25T03:15:27;2.95;;;1.30;;
56752;SDS011;42627;42.646;23.642;2023-04-25T03:17:28;3.50;;;1.40;;
56752;SDS011;42627;42.646;23.642;2023-04-25T03:19:29;2.22;;;1.30;;
56752;SDS011;42627;42.646;23.642;2023-04-25T03:21:30;3.15;;;1.50;;
56752;SDS011;42627;42.646;23.642;2023-04-25T03:23:32;2.65;;;1.30;;
56752;SDS011;42627;42.646;23.642;2023-04-25T03:25:35;2.30;;;1.38;;
56752;SDS011;42627;42.646;23.642;2023-04-25T03:27:36;4.20;;;2.25;;
56752;SDS011;42627;42.646;23.642;2023-04-25T03:29:38;3.33;;;1.58;;
56752;SDS011;42627;42.646;23.642;2023-04-25T03:31:40;3.92;;;1.88;;
56752;SDS011;42627;42.646;23.642;2023-04-25T03:33:41;4.07;;;1.92;;
56752;SDS011;42627;42.646;23.642;2023-04-25T03:35:42;3.95;;;1.80;;
56752;SDS011;42627;42.646;23.642;2023-04-25T03:37:43;3.45;;;1.52;;
56752;SDS011;42627;42.646;23.642;2023-04-25T03:39:49;4.50;;;2.05;;
56752;SDS011;42627;42.646;23.642;2023-04-25T03:41:49;3.72;;;1.80;;
56752;SDS011;42627;42.646;23.642;2023-04-25T03:46:05;7.40;;;2.72;;
56752;SDS011;42627;42.646;23.642;2023-04-25T03:48:06;5.55;;;2.63;;
56752;SDS011;42627;42.646;23.642;2023-04-25T03:50:07;5.28;;;2.58;;
56752;SDS011;42627;42.646;23.642;2023-04-25T03:52:08;11.85;;;5.45;;
56752;SDS011;42627;42.646;23.642;2023-04-25T03:54:09;15.15;;;6.65;;
56752;SDS011;42627;42.646;23.642;2023-04-25T03:56:15;10.52;;;5.75;;
56752;SDS011;42627;42.646;23.642;2023-04-25T03:58:28;9.65;;;5.13;;
56752;SDS011;42627;42.646;23.642;2023-04-25T04:00:29;10.98;;;5.57;;
56752;SDS011;42627;42.646;23.642;2023-04-25T04:02:30;10.52;;;5.95;;
56752;SDS011;42627;42.646;23.642;2023-04-25T04:04:33;12.95;;;6.63;;
56752;SDS011;42627;42.646;23.642;2023-04-25T04:06:34;11.95;;;5.78;;
56752;SDS011;42627;42.646;23.642;2023-04-25T04:08:35;11.35;;;4.80;;
56752;SDS011;42627;42.646;23.642;2023-04-25T04:10:36;12.40;;;4.70;;
56752;SDS011;42627;42.646;23.642;2023-04-25T04:12:37;11.57;;;6.00;;
56752;SDS011;42627;42.646;23.642;2023-04-25T04:14:38;12.40;;;5.07;;
56752;SDS011;42627;42.646;23.642;2023-04-25T04:16:39;15.88;;;5.80;;
56752;SDS011;42627;42.646;23.642;2023-04-25T04:18:40;12.35;;;5.03;;
56752;SDS011;42627;42.646;23.642;2023-04-25T04:20:41;9.65;;;5.35;;
56752;SDS011;42627;42.646;23.642;2023-04-25T04:22:42;10.98;;;5.13;;
56752;SDS011;42627;42.646;23.642;2023-04-25T04:24:43;11.18;;;5.45;;
56752;SDS011;42627;42.646;23.642;2023-04-25T04:26:51;10.57;;;5.32;;
56752;SDS011;42627;42.646;23.642;2023-04-25T04:28:53;13.82;;;6.00;;
56752;SDS011;42627;42.646;23.642;2023-04-25T04:30:55;12.40;;;6.07;;
56752;SDS011;42627;42.646;23.642;2023-04-25T04:32:56;12.32;;;5.63;;
56752;SDS011;42627;42.646;23.642;2023-04-25T04:34:57;13.75;;;6.45;;
56752;SDS011;42627;42.646;23.642;2023-04-25T04:36:59;14.30;;;6.15;;
56752;SDS011;42627;42.646;23.642;2023-04-25T04:39:00;14.38;;;5.57;;
56752;SDS011;42627;42.646;23.642;2023-04-25T04:41:03;13.45;;;5.80;;
56752;SDS011;42627;42.646;23.642;2023-04-25T04:43:04;12.05;;;5.95;;
56752;SDS011;42627;42.646;23.642;2023-04-25T04:45:05;12.20;;;6.00;;
56752;SDS011;42627;42.646;23.642;2023-04-25T04:47:06;13.07;;;5.53;;
56752;SDS011;42627;42.646;23.642;2023-04-25T04:49:08;10.98;;;5.40;;
56752;SDS011;42627;42.646;23.642;2023-04-25T04:51:09;12.77;;;6.07;;
56752;SDS011;42627;42.646;23.642;2023-04-25T04:53:10;14.23;;;7.10;;
56752;SDS011;42627;42.646;23.642;2023-04-25T04:55:13;16.63;;;7.03;;
56752;SDS011;42627;42.646;23.642;2023-04-25T04:57:19;14.10;;;6.45;;
56752;SDS011;42627;42.646;23.642;2023-04-25T04:59:20;11.73;;;5.53;;
56752;SDS011;42627;42.646;23.642;2023-04-25T05:01:21;9.88;;;5.32;;
56752;SDS011;42627;42.646;23.642;2023-04-25T05:03:22;5.72;;;3.30;;
56752;SDS011;42627;42.646;23.642;2023-04-25T05:05:23;7.03;;;3.78;;
56752;SDS011;42627;42.646;23.642;2023-04-25T05:07:24;7.53;;;3.53;;
56752;SDS011;42627;42.646;23.642;2023-04-25T05:09:26;5.95;;;3.08;;
56752;SDS011;42627;42.646;23.642;2023-04-25T05:11:27;7.80;;;3.83;;
56752;SDS011;42627;42.646;23.642;2023-04-25T05:15:43;4.63;;;2.75;;
56752;SDS011;42627;42.646;23.642;2023-04-25T05:17:44;3.88;;;2.40;;
56752;SDS011;42627;42.646;23.642;2023-04-25T05:19:45;3.45;;;1.90;;
56752;SDS011;42627;42.646;23.642;2023-04-25T05:21:46;5.07;;;2.67;;
56752;SDS011;42627;42.646;23.642;2023-04-25T05:23:57;5.63;;;2.55;;
56752;SDS011;42627;42.646;23.642;2023-04-25T05:25:59;4.68;;;2.17;;
56752;SDS011;42627;42.646;23.642;2023-04-25T05:28:01;4.07;;;2.78;;
56752;SDS011;42627;42.646;23.642;2023-04-25T05:30:05;5.23;;;2.27;;
56752;SDS011;42627;42.646;23.642;2023-04-25T05:32:06;5.57;;;2.50;;
56752;SDS011;42627;42.646;23.642;2023-04-25T05:34:08;4.90;;;2.38;;
56752;SDS011;42627;42.646;23.642;2023-04-25T05:36:09;4.10;;;2.38;;
56752;SDS011;42627;42.646;23.642;2023-04-25T05:38:10;6.47;;;2.45;;
56752;SDS011;42627;42.646;23.642;2023-04-25T05:40:11;4.60;;;2.28;;
56752;SDS011;42627;42.646;23.642;2023-04-25T05:42:12;5.38;;;2.60;;
56752;SDS011;42627;42.646;23.642;2023-04-25T05:44:13;4.80;;;2.40;;
56752;SDS011;42627;42.646;23.642;2023-04-25T05:46:15;4.25;;;2.55;;
56752;SDS011;42627;42.646;23.642;2023-04-25T05:48:19;5.28;;;2.88;;
56752;SDS011;42627;42.646;23.642;2023-04-25T05:50:20;4.28;;;2.05;;
56752;SDS011;42627;42.646;23.642;2023-04-25T05:52:22;4.70;;;1.92;;
56752;SDS011;42627;42.646;23.642;2023-04-25T05:54:27;3.70;;;2.13;;
56752;SDS011;42627;42.646;23.642;2023-04-25T05:56:30;5.32;;;2.50;;
56752;SDS011;42627;42.646;23.642;2023-04-25T05:58:31;4.60;;;2.28;;
56752;SDS011;42627;42.646;23.642;2023-04-25T06:00:32;3.55;;;2.15;;
56752;SDS011;42627;42.646;23.642;2023-04-25T06:02:33;4.03;;;2.33;;
56752;SDS011;42627;42.646;23.642;2023-04-25T06:04:34;4.85;;;2.58;;
56752;SDS011;42627;42.646;23.642;2023-04-25T06:06:35;12.27;;;2.47;;
56752;SDS011;42627;42.646;23.642;2023-04-25T06:08:36;4.60;;;2.45;;
56752;SDS011;42627;42.646;23.642;2023-04-25T06:10:38;5.63;;;2.88;;
56752;SDS011;42627;42.646;23.642;2023-04-25T06:12:39;5.75;;;3.03;;
56752;SDS011;42627;42.646;23.642;2023-04-25T06:15:02;4.55;;;2.78;;
56752;SDS011;42627;42.646;23.642;2023-04-25T06:17:03;7.00;;;3.63;;
56752;SDS011;42627;42.646;23.642;2023-04-25T06:19:08;7.10;;;3.30;;
56752;SDS011;42627;42.646;23.642;2023-04-25T06:21:09;12.98;;;6.25;;
56752;SDS011;42627;42.646;23.642;2023-04-25T06:23:10;11.02;;;6.05;;
56752;SDS011;42627;42.646;23.642;2023-04-25T06:25:11;9.32;;;5.43;;
56752;SDS011;42627;42.646;23.642;2023-04-25T06:27:16;8.55;;;4.28;;
56752;SDS011;42627;42.646;23.642;2023-04-25T06:29:17;10.82;;;4.63;;
56752;SDS011;42627;42.646;23.642;2023-04-25T06:31:18;8.93;;;3.83;;
56752;SDS011;42627;42.646;23.642;2023-04-25T06:33:19;6.28;;;3.63;;
56752;SDS011;42627;42.646;23.642;2023-04-25T06:35:21;8.77;;;3.90;;
56752;SDS011;42627;42.646;23.642;2023-04-25T06:37:22;8.40;;;4.35;;
56752;SDS011;42627;42.646;23.642;2023-04-25T06:39:23;8.43;;;4.28;;
56752;SDS011;42627;42.646;23.642;2023-04-25T06:41:25;10.80;;;4.70;;
56752;SDS011;42627;42.646;23.642;2023-04-25T06:43:26;8.00;;;4.35;;
56752;SDS011;42627;42.646;23.642;2023-04-25T07:58:53;8.13;;;4.20;;
56752;SDS011;42627;42.646;23.642;2023-04-25T08:00:54;8.60;;;4.22;;
56752;SDS011;42627;42.646;23.642;2023-04-25T08:02:55;6.97;;;4.00;;
56752;SDS011;42627;42.646;23.642;2023-04-25T08:04:56;7.53;;;3.97;;
56752;SDS011;42627;42.646;23.642;2023-04-25T08:06:57;5.18;;;3.38;;
56752;SDS011;42627;42.646;23.642;2023-04-25T08:08:58;7.07;;;3.55;;
56752;SDS011;42627;42.646;23.642;2023-04-25T08:11:00;6.25;;;3.40;;
56752;SDS011;42627;42.646;23.642;2023-04-25T08:13:06;7.53;;;3.80;;
56752;SDS011;42627;42.646;23.642;2023-04-25T08:15:08;7.05;;;3.63;;
56752;SDS011;42627;42.646;23.642;2023-04-25T08:17:09;5.97;;;3.00;;
56752;SDS011;42627;42.646;23.642;2023-04-25T08:19:10;5.55;;;3.22;;
56752;SDS011;42627;42.646;23.642;2023-04-25T08:21:11;7.65;;;3.92;;
56752;SDS011;42627;42.646;23.642;2023-04-25T08:23:13;8.43;;;3.80;;
56752;SDS011;42627;42.646;23.642;2023-04-25T08:25:14;6.47;;;3.60;;
56752;SDS011;42627;42.646;23.642;2023-04-25T08:27:15;7.47;;;3.53;;
56752;SDS011;42627;42.646;23.642;2023-04-25T08:29:16;5.78;;;3.28;;
56752;SDS011;42627;42.646;23.642;2023-04-25T08:31:17;5.88;;;3.50;;
56752;SDS011;42627;42.646;23.642;2023-04-25T08:35:23;6.68;;;3.80;;
56752;SDS011;42627;42.646;23.642;2023-04-25T08:37:24;8.60;;;3.35;;
56752;SDS011;42627;42.646;23.642;2023-04-25T08:39:25;5.90;;;3.72;;
56752;SDS011;42627;42.646;23.642;2023-04-25T08:41:38;6.05;;;3.58;;
56752;SDS011;42627;42.646;23.642;2023-04-25T08:43:45;6.22;;;3.30;;
56752;SDS011;42627;42.646;23.642;2023-04-25T08:45:50;5.72;;;3.30;;
56752;SDS011;42627;42.646;23.642;2023-04-25T08:47:54;6.90;;;3.13;;
56752;SDS011;42627;42.646;23.642;2023-04-25T08:49:57;6.05;;;3.00;;
56752;SDS011;42627;42.646;23.642;2023-04-25T08:52:03;4.85;;;3.08;;
56752;SDS011;42627;42.646;23.642;2023-04-25T08:56:08;4.07;;;2.90;;
56752;SDS011;42627;42.646;23.642;2023-04-25T08:58:13;5.57;;;3.07;;
56752;SDS011;42627;42.646;23.642;2023-04-25T09:00:14;4.78;;;2.55;;
56752;SDS011;42627;42.646;23.642;2023-04-25T09:02:15;8.25;;;2.92;;
56752;SDS011;42627;42.646;23.642;2023-04-25T09:04:17;5.03;;;3.00;;
56752;SDS011;42627;42.646;23.642;2023-04-25T09:06:20;5.05;;;2.40;;
56752;SDS011;42627;42.646;23.642;2023-04-25T09:08:21;5.10;;;2.90;;
56752;SDS011;42627;42.646;23.642;2023-04-25T09:10:22;5.85;;;2.88;;
56752;SDS011;42627;42.646;23.642;2023-04-25T09:12:27;5.60;;;2.88;;
56752;SDS011;42627;42.646;23.642;2023-04-25T09:17:03;5.38;;;2.95;;
56752;SDS011;42627;42.646;23.642;2023-04-25T09:21:09;6.85;;;3.10;;
56752;SDS011;42627;42.646;23.642;2023-04-25T09:23:10;7.10;;;3.25;;
56752;SDS011;42627;42.646;23.642;2023-04-25T09:25:12;4.93;;;2.15;;
56752;SDS011;42627;42.646;23.642;2023-04-25T09:27:19;2.58;;;1.38;;
56752;SDS011;42627;42.646;23.642;2023-04-25T09:29:29;1.88;;;1.13;;
56752;SDS011;42627;42.646;23.642;2023-04-25T09:33:41;5.78;;;1.80;;
56752;SDS011;42627;42.646;23.642;2023-04-25T09:35:43;2.78;;;1.20;;
56752;SDS011;42627;42.646;23.642;2023-04-25T09:37:45;1.98;;;0.98;;
56752;SDS011;42627;42.646;23.642;2023-04-25T09:39:49;1.92;;;1.08;;
56752;SDS011;42627;42.646;23.642;2023-04-25T09:44:25;1.20;;;0.68;;
56752;SDS011;42627;42.646;23.642;2023-04-25T09:46:33;1.85;;;1.08;;
56752;SDS011;42627;42.646;23.642;2023-04-25T09:48:37;1.02;;;0.60;;
56752;SDS011;42627;42.646;23.642;2023-04-25T09:50:38;1.42;;;0.70;;
56752;SDS011;42627;42.646;23.642;2023-04-25T09:52:40;1.73;;;0.90;;
56752;SDS011;42627;42.646;23.642;2023-04-25T09:54:41;2.28;;;0.90;;
56752;SDS011;42627;42.646;23.642;2023-04-25T09:56:42;0.98;;;0.60;;
56752;SDS011;42627;42.646;23.642;2023-04-25T09:58:44;1.00;;;0.70;;
56752;SDS011;42627;42.646;23.642;2023-04-25T10:00:51;1.33;;;0.77;;
56752;SDS011;42627;42.646;23.642;2023-04-25T10:02:52;1.40;;;0.68;;
56752;SDS011;42627;42.646;23.642;2023-04-25T10:04:54;1.50;;;0.65;;
56752;SDS011;42627;42.646;23.642;2023-04-25T10:06:55;1.08;;;0.70;;
56752;SDS011;42627;42.646;23.642;2023-04-25T10:08:57;1.98;;;0.88;;
56752;SDS011;42627;42.646;23.642;2023-04-25T10:13:39;2.30;;;1.05;;
56752;SDS011;42627;42.646;23.642;2023-04-25T10:15:53;1.70;;;1.00;;
56752;SDS011;42627;42.646;23.642;2023-04-25T10:17:54;2.78;;;1.33;;
56752;SDS011;42627;42.646;23.642;2023-04-25T10:19:56;2.42;;;1.23;;
56752;SDS011;42627;42.646;23.642;2023-04-25T10:22:06;2.28;;;1.27;;
56752;SDS011;42627;42.646;23.642;2023-04-25T10:24:07;1.60;;;1.00;;
56752;SDS011;42627;42.646;23.642;2023-04-25T10:26:09;1.45;;;0.82;;
56752;SDS011;42627;42.646;23.642;2023-04-25T10:28:12;1.50;;;1.10;;
56752;SDS011;42627;42.646;23.642;2023-04-25T10:30:14;2.10;;;1.00;;
56752;SDS011;42627;42.646;23.642;2023-04-25T10:32:15;1.83;;;1.20;;
56752;SDS011;42627;42.646;23.642;2023-04-25T10:34:16;1.80;;;1.10;;
56752;SDS011;42627;42.646;23.642;2023-04-25T10:36:18;1.85;;;1.17;;
56752;SDS011;42627;42.646;23.642;2023-04-25T10:38:20;2.22;;;1.08;;
56752;SDS011;42627;42.646;23.642;2023-04-25T10:45:15;3.15;;;1.17;;
56752;SDS011;42627;42.646;23.642;2023-04-25T10:47:16;6.20;;;0.90;;
56752;SDS011;42627;42.646;23.642;2023-04-25T10:49:38;1.63;;;0.90;;
56752;SDS011;42627;42.646;23.642;2023-04-25T10:51:42;2.53;;;1.08;;
56752;SDS011;42627;42.646;23.642;2023-04-25T10:53:43;1.40;;;0.80;;
56752;SDS011;42627;42.646;23.642;2023-04-25T10:55:51;3.08;;;1.17;;
56752;SDS011;42627;42.646;23.642;2023-04-25T10:57:52;1.23;;;0.85;;
56752;SDS011;42627;42.646;23.642;2023-04-25T10:59:59;1.95;;;1.17;;
56752;SDS011;42627;42.646;23.642;2023-04-25T11:02:01;1.48;;;0.90;;
56752;SDS011;42627;42.646;23.642;2023-04-25T11:06:23;3.83;;;1.30;;
56752;SDS011;42627;42.646;23.642;2023-04-25T11:08:33;1.88;;;1.00;;
56752;SDS011;42627;42.646;23.642;2023-04-25T11:10:41;3.33;;;1.45;;
56752;SDS011;42627;42.646;23.642;2023-04-25T11:15:13;1.40;;;0.82;;
56752;SDS011;42627;42.646;23.642;2023-04-25T11:17:14;1.83;;;0.80;;
56752;SDS011;42627;42.646;23.642;2023-04-25T11:19:15;1.48;;;0.80;;
56752;SDS011;42627;42.646;23.642;2023-04-25T11:21:16;1.10;;;0.50;;
56752;SDS011;42627;42.646;23.642;2023-04-25T11:23:17;1.05;;;0.50;;
56752;SDS011;42627;42.646;23.642;2023-04-25T11:25:19;1.48;;;0.70;;
56752;SDS011;42627;42.646;23.642;2023-04-25T11:27:20;1.25;;;0.50;;
56752;SDS011;42627;42.646;23.642;2023-04-25T11:29:30;2.00;;;0.80;;
56752;SDS011;42627;42.646;23.642;2023-04-25T11:31:31;0.98;;;0.50;;
56752;SDS011;42627;42.646;23.642;2023-04-25T11:33:32;1.75;;;0.52;;
56752;SDS011;42627;42.646;23.642;2023-04-25T11:35:33;1.55;;;0.60;;
56752;SDS011;42627;42.646;23.642;2023-04-25T11:37:35;0.45;;;0.35;;
56752;SDS011;42627;42.646;23.642;2023-04-25T11:44:32;1.83;;;0.68;;
56752;SDS011;42627;42.646;23.642;2023-04-25T11:46:35;3.53;;;0.70;;
56752;SDS011;42627;42.646;23.642;2023-04-25T11:48:42;0.82;;;0.40;;
56752;SDS011;42627;42.646;23.642;2023-04-25T11:50:44;1.17;;;0.40;;
56752;SDS011;42627;42.646;23.642;2023-04-25T11:52:46;1.27;;;0.40;;
56752;SDS011;42627;42.646;23.642;2023-04-25T11:54:48;0.52;;;0.50;;
56752;SDS011;42627;42.646;23.642;2023-04-25T11:56:49;0.65;;;0.40;;
56752;SDS011;42627;42.646;23.642;2023-04-25T12:01:00;1.42;;;0.60;;
56752;SDS011;42627;42.646;23.642;2023-04-25T12:03:03;1.35;;;0.52;;
56752;SDS011;42627;42.646;23.642;2023-04-25T12:05:08;1.48;;;0.77;;
56752;SDS011;42627;42.646;23.642;2023-04-25T12:07:13;2.83;;;0.75;;
56752;SDS011;42627;42.646;23.642;2023-04-25T12:09:15;1.92;;;0.70;;
56752;SDS011;42627;42.646;23.642;2023-04-25T12:11:21;1.60;;;0.77;;
56752;SDS011;42627;42.646;23.642;2023-04-25T12:13:42;2.65;;;0.68;;
56752;SDS011;42627;42.646;23.642;2023-04-25T12:15:44;4.78;;;1.50;;
56752;SDS011;42627;42.646;23.642;2023-04-25T12:17:46;1.52;;;0.90;;
56752;SDS011;42627;42.646;23.642;2023-04-25T12:19:47;2.78;;;0.80;;
56752;SDS011;42627;42.646;23.642;2023-04-25T12:21:49;2.15;;;1.00;;
56752;SDS011;42627;42.646;23.642;2023-04-25T12:27:03;2.58;;;0.75;;
56752;SDS011;42627;42.646;23.642;2023-04-25T12:29:21;1.10;;;0.60;;
56752;SDS011;42627;42.646;23.642;2023-04-25T12:31:22;4.90;;;0.90;;
56752;SDS011;42627;42.646;23.642;2023-04-25T12:33:23;2.10;;;0.82;;
56752;SDS011;42627;42.646;23.642;2023-04-25T12:35:24;3.63;;;0.90;;
56752;SDS011;42627;42.646;23.642;2023-04-25T12:37:25;2.17;;;1.00;;
56752;SDS011;42627;42.646;23.642;2023-04-25T12:39:26;3.35;;;1.30;;
56752;SDS011;42627;42.646;23.642;2023-04-25T12:41:27;3.17;;;1.55;;
56752;SDS011;42627;42.646;23.642;2023-04-25T12:43:33;2.28;;;1.10;;
56752;SDS011;42627;42.646;23.642;2023-04-25T12:45:34;1.63;;;0.70;;
56752;SDS011;42627;42.646;23.642;2023-04-25T12:47:39;2.03;;;0.75;;
56752;SDS011;42627;42.646;23.642;2023-04-25T12:49:40;1.95;;;1.17;;
56752;SDS011;42627;42.646;23.642;2023-04-25T12:51:41;1.70;;;1.00;;
56752;SDS011;42627;42.646;23.642;2023-04-25T12:58:36;2.33;;;1.08;;
56752;SDS011;42627;42.646;23.642;2023-04-25T13:00:40;2.00;;;1.02;;
56752;SDS011;42627;42.646;23.642;2023-04-25T13:02:41;3.42;;;1.38;;
56752;SDS011;42627;42.646;23.642;2023-04-25T13:04:42;2.33;;;1.10;;
56752;SDS011;42627;42.646;23.642;2023-04-25T13:06:44;2.10;;;1.00;;
56752;SDS011;42627;42.646;23.642;2023-04-25T13:08:45;3.03;;;0.98;;
56752;SDS011;42627;42.646;23.642;2023-04-25T13:10:51;2.10;;;0.90;;
56752;SDS011;42627;42.646;23.642;2023-04-25T13:12:55;1.67;;;1.00;;
56752;SDS011;42627;42.646;23.642;2023-04-25T13:14:56;1.38;;;0.75;;
56752;SDS011;42627;42.646;23.642;2023-04-25T13:16:58;1.90;;;0.70;;
56752;SDS011;42627;42.646;23.642;2023-04-25T13:18:59;1.20;;;0.52;;
56752;SDS011;42627;42.646;23.642;2023-04-25T13:21:00;1.67;;;0.70;;
56752;SDS011;42627;42.646;23.642;2023-04-25T13:23:03;0.93;;;0.60;;
56752;SDS011;42627;42.646;23.642;2023-04-25T13:25:07;1.67;;;0.88;;
56752;SDS011;42627;42.646;23.642;2023-04-25T13:27:11;4.88;;;1.05;;
56752;SDS011;42627;42.646;23.642;2023-04-25T13:29:17;2.00;;;0.82;;
56752;SDS011;42627;42.646;23.642;2023-04-25T13:31:18;1.50;;;0.95;;
56752;SDS011;42627;42.646;23.642;2023-04-25T13:33:22;2.10;;;0.77;;
56752;SDS011;42627;42.646;23.642;2023-04-25T13:35:23;1.30;;;0.70;;
56752;SDS011;42627;42.646;23.642;2023-04-25T13:37:24;3.03;;;0.70;;
56752;SDS011;42627;42.646;23.642;2023-04-25T13:41:56;3.78;;;1.48;;
56752;SDS011;42627;42.646;23.642;2023-04-25T13:44:02;0.68;;;0.60;;
56752;SDS011;42627;42.646;23.642;2023-04-25T13:46:03;11.20;;;4.10;;
56752;SDS011;42627;42.646;23.642;2023-04-25T13:48:04;3.47;;;1.60;;
56752;SDS011;42627;42.646;23.642;2023-04-25T13:50:07;2.45;;;1.15;;
56752;SDS011;42627;42.646;23.642;2023-04-25T13:52:08;2.88;;;1.55;;
56752;SDS011;42627;42.646;23.642;2023-04-25T13:54:09;1.40;;;0.90;;
56752;SDS011;42627;42.646;23.642;2023-04-25T13:56:10;8.90;;;5.07;;
56752;SDS011;42627;42.646;23.642;2023-04-25T13:58:16;6.93;;;3.90;;
56752;SDS011;42627;42.646;23.642;2023-04-25T14:00:17;9.98;;;3.75;;
56752;SDS011;42627;42.646;23.642;2023-04-25T14:02:21;4.85;;;2.83;;
56752;SDS011;42627;42.646;23.642;2023-04-25T14:04:22;8.13;;;2.97;;
56752;SDS011;42627;42.646;23.642;2023-04-25T14:06:23;3.00;;;1.50;;
56752;SDS011;42627;42.646;23.642;2023-04-25T14:11:15;2.83;;;1.27;;